Bon Air, Alabama
Current Conditions -  °F | °C
As of 12:35 PM on Wednesday 26 Nov 2014 (Local Time) from KSCD Reporting Station
Clear Clear  
Wind Chill: 56°   Ceiling: Unl
Heat Index: 56°   Visibility: 10mi
Dew Point: 27°   Wind: 9mph
Humidity: 32%   Direction: 270°W
Pressure: 30.14"   Gusts: 16mph
Location:  33.26°N, 86.34°W
Report Text: KSCD 261835Z AUTO 27008G14KT 10SM CLR 14/M03 A3014 RMK AO2 T01351029
Loading
Personal Weather Stations






























Interactive Weather Map New forecast layout! Learn more

10-Day Weather Forecast

Advertisements
Track Severe Weather on mobile